Terminal Aerodrome Forecast
Issued by NWS

Home | Current Version | Previous Version | Text Only | Print | Product List | Glossary On
Versions: 1 2 3 4 5 6 7 8 9 10 11 12 13 14 15 16
000
FTUS43 KFGF 012300
TAFBJI
TAF
KBJI 012322Z 0200/0224 25015G22KT P6SM BKN200
     FM020400 25011KT P6SM SCT200
     FM021500 26024G30KT P6SM BKN100=

USA.gov is the U.S. government's official web portal to all federal, state and local government web resources and services.